sensor_id;sensor_type;location;lat;lon;timestamp;pressure;altitude;pressure_sealevel;temperature;humidity
70011;BME280;59543;37.950;-122.338;2022-10-16T00:01:36;101112.00;;;18.22;66.47
70011;BME280;59543;37.950;-122.338;2022-10-16T00:04:04;101119.50;;;18.20;67.15
70011;BME280;59543;37.950;-122.338;2022-10-16T00:06:31;101121.47;;;18.26;66.39
70011;BME280;59543;37.950;-122.338;2022-10-16T00:09:00;101115.31;;;18.17;66.90
70011;BME280;59543;37.950;-122.338;2022-10-16T00:11:32;101112.22;;;18.20;66.99
70011;BME280;59543;37.950;-122.338;2022-10-16T00:14:06;101104.31;;;17.96;67.97
70011;BME280;59543;37.950;-122.338;2022-10-16T00:16:34;101102.94;;;17.85;68.24
70011;BME280;59543;37.950;-122.338;2022-10-16T00:19:00;101109.50;;;17.91;68.16
70011;BME280;59543;37.950;-122.338;2022-10-16T00:21:29;101115.88;;;17.83;68.75
70011;BME280;59543;37.950;-122.338;2022-10-16T00:23:58;101109.41;;;17.84;68.25
70011;BME280;59543;37.950;-122.338;2022-10-16T00:26:27;101107.34;;;17.86;68.66
70011;BME280;59543;37.950;-122.338;2022-10-16T00:28:53;101109.84;;;17.73;69.05
70011;BME280;59543;37.950;-122.338;2022-10-16T00:31:21;101107.19;;;17.65;69.64
70011;BME280;59543;37.950;-122.338;2022-10-16T00:33:48;101102.88;;;17.55;70.03
70011;BME280;59543;37.950;-122.338;2022-10-16T00:36:17;101106.00;;;17.67;69.41
70011;BME280;59543;37.950;-122.338;2022-10-16T00:38:44;101107.38;;;17.48;69.66
70011;BME280;59543;37.950;-122.338;2022-10-16T00:41:13;101106.25;;;17.43;70.41
70011;BME280;59543;37.950;-122.338;2022-10-16T00:43:47;101106.16;;;17.36;70.87
70011;BME280;59543;37.950;-122.338;2022-10-16T00:51:35;101102.63;;;17.12;71.32
70011;BME280;59543;37.950;-122.338;2022-10-16T00:54:04;101103.25;;;17.14;71.14
70011;BME280;59543;37.950;-122.338;2022-10-16T00:56:33;101105.22;;;17.06;71.54
70011;BME280;59543;37.950;-122.338;2022-10-16T00:59:02;101109.88;;;16.97;72.08
70011;BME280;59543;37.950;-122.338;2022-10-16T01:01:29;101109.38;;;16.94;72.54
70011;BME280;59543;37.950;-122.338;2022-10-16T01:03:56;101113.91;;;17.01;72.34
70011;BME280;59543;37.950;-122.338;2022-10-16T01:06:38;101106.13;;;16.98;72.33
70011;BME280;59543;37.950;-122.338;2022-10-16T01:09:16;101111.56;;;16.98;71.94
70011;BME280;59543;37.950;-122.338;2022-10-16T01:12:10;101111.50;;;17.06;72.39
70011;BME280;59543;37.950;-122.338;2022-10-16T01:17:20;101118.88;;;16.66;73.54
70011;BME280;59543;37.950;-122.338;2022-10-16T01:22:16;101119.84;;;16.82;73.04
70011;BME280;59543;37.950;-122.338;2022-10-16T01:24:46;101113.44;;;16.66;73.76
70011;BME280;59543;37.950;-122.338;2022-10-16T01:27:40;101121.31;;;16.61;73.76
70011;BME280;59543;37.950;-122.338;2022-10-16T01:32:52;101122.06;;;16.78;73.30
70011;BME280;59543;37.950;-122.338;2022-10-16T01:35:25;101113.09;;;16.69;73.56
70011;BME280;59543;37.950;-122.338;2022-10-16T01:38:06;101125.81;;;16.69;73.50
70011;BME280;59543;37.950;-122.338;2022-10-16T01:40:37;101120.88;;;16.73;73.23
70011;BME280;59543;37.950;-122.338;2022-10-16T01:43:10;101128.38;;;16.71;73.68
70011;BME280;59543;37.950;-122.338;2022-10-16T01:45:38;101118.88;;;16.66;73.79
70011;BME280;59543;37.950;-122.338;2022-10-16T01:48:06;101120.47;;;16.61;73.96
70011;BME280;59543;37.950;-122.338;2022-10-16T01:50:38;101116.16;;;16.66;73.88
70011;BME280;59543;37.950;-122.338;2022-10-16T01:53:08;101119.91;;;16.65;73.60
70011;BME280;59543;37.950;-122.338;2022-10-16T01:55:39;101116.13;;;16.75;73.27
70011;BME280;59543;37.950;-122.338;2022-10-16T01:58:10;101122.66;;;16.57;74.09
70011;BME280;59543;37.950;-122.338;2022-10-16T02:00:40;101117.25;;;16.57;73.83
70011;BME280;59543;37.950;-122.338;2022-10-16T02:03:07;101126.06;;;16.59;73.91
70011;BME280;59543;37.950;-122.338;2022-10-16T02:05:43;101123.53;;;16.58;73.72
70011;BME280;59543;37.950;-122.338;2022-10-16T02:08:10;101127.53;;;16.70;73.46
70011;BME280;59543;37.950;-122.338;2022-10-16T02:10:37;101121.47;;;16.60;73.85
70011;BME280;59543;37.950;-122.338;2022-10-16T02:15:34;101125.31;;;16.74;73.29
70011;BME280;59543;37.950;-122.338;2022-10-16T02:18:02;101132.78;;;16.72;73.77
70011;BME280;59543;37.950;-122.338;2022-10-16T02:20:34;101136.53;;;16.71;73.56
70011;BME280;59543;37.950;-122.338;2022-10-16T02:23:03;101134.16;;;16.76;73.41
70011;BME280;59543;37.950;-122.338;2022-10-16T02:25:35;101136.91;;;16.90;72.67
70011;BME280;59543;37.950;-122.338;2022-10-16T02:28:16;101133.44;;;16.74;73.52
70011;BME280;59543;37.950;-122.338;2022-10-16T02:30:57;101135.25;;;16.58;74.34
70011;BME280;59543;37.950;-122.338;2022-10-16T02:33:25;101142.31;;;16.67;73.60
70011;BME280;59543;37.950;-122.338;2022-10-16T02:35:53;101143.56;;;16.57;74.39
70011;BME280;59543;37.950;-122.338;2022-10-16T02:38:21;101144.31;;;16.74;73.37
70011;BME280;59543;37.950;-122.338;2022-10-16T02:40:48;101156.53;;;16.78;73.63
70011;BME280;59543;37.950;-122.338;2022-10-16T02:43:15;101150.28;;;16.69;73.88
70011;BME280;59543;37.950;-122.338;2022-10-16T02:45:42;101152.69;;;16.64;74.13
70011;BME280;59543;37.950;-122.338;2022-10-16T02:48:08;101159.97;;;16.63;74.18
70011;BME280;59543;37.950;-122.338;2022-10-16T02:50:35;101159.97;;;16.63;74.35
70011;BME280;59543;37.950;-122.338;2022-10-16T02:53:01;101158.31;;;16.62;74.36
70011;BME280;59543;37.950;-122.338;2022-10-16T02:55:28;101160.34;;;16.60;74.30
70011;BME280;59543;37.950;-122.338;2022-10-16T02:57:54;101163.50;;;16.72;74.02
70011;BME280;59543;37.950;-122.338;2022-10-16T03:00:20;101165.97;;;16.59;74.65
70011;BME280;59543;37.950;-122.338;2022-10-16T03:02:47;101162.53;;;16.65;74.17
70011;BME280;59543;37.950;-122.338;2022-10-16T03:05:13;101159.84;;;16.57;74.39
70011;BME280;59543;37.950;-122.338;2022-10-16T03:07:40;101162.88;;;16.62;74.20
70011;BME280;59543;37.950;-122.338;2022-10-16T03:10:07;101161.00;;;16.62;74.23
70011;BME280;59543;37.950;-122.338;2022-10-16T03:12:33;101159.13;;;16.63;74.12
70011;BME280;59543;37.950;-122.338;2022-10-16T03:14:59;101163.38;;;16.65;74.01
70011;BME280;59543;37.950;-122.338;2022-10-16T03:17:26;101165.16;;;16.81;73.58
70011;BME280;59543;37.950;-122.338;2022-10-16T03:19:52;101168.94;;;16.72;73.22
70011;BME280;59543;37.950;-122.338;2022-10-16T03:22:18;101173.19;;;16.66;73.61
70011;BME280;59543;37.950;-122.338;2022-10-16T03:24:45;101171.47;;;16.74;73.62
70011;BME280;59543;37.950;-122.338;2022-10-16T03:27:11;101179.31;;;16.68;73.77
70011;BME280;59543;37.950;-122.338;2022-10-16T03:29:37;101170.97;;;16.78;73.13
70011;BME280;59543;37.950;-122.338;2022-10-16T03:32:03;101164.22;;;16.66;73.46
70011;BME280;59543;37.950;-122.338;2022-10-16T03:34:30;101172.84;;;16.69;73.48
70011;BME280;59543;37.950;-122.338;2022-10-16T03:36:56;101175.06;;;16.66;73.36
70011;BME280;59543;37.950;-122.338;2022-10-16T03:39:22;101164.53;;;16.71;73.42
70011;BME280;59543;37.950;-122.338;2022-10-16T03:41:48;101175.19;;;16.73;73.05
70011;BME280;59543;37.950;-122.338;2022-10-16T03:44:15;101167.41;;;16.78;73.34
70011;BME280;59543;37.950;-122.338;2022-10-16T03:46:41;101170.31;;;16.68;73.03
70011;BME280;59543;37.950;-122.338;2022-10-16T03:49:07;101163.84;;;16.77;72.94
70011;BME280;59543;37.950;-122.338;2022-10-16T03:51:33;101164.34;;;16.73;72.88
70011;BME280;59543;37.950;-122.338;2022-10-16T03:54:00;101161.81;;;16.71;72.98
70011;BME280;59543;37.950;-122.338;2022-10-16T03:56:26;101173.41;;;16.65;73.61
70011;BME280;59543;37.950;-122.338;2022-10-16T03:58:52;101175.88;;;16.75;73.18
70011;BME280;59543;37.950;-122.338;2022-10-16T04:01:18;101176.25;;;16.72;73.05
70011;BME280;59543;37.950;-122.338;2022-10-16T04:03:44;101176.25;;;16.72;73.44
70011;BME280;59543;37.950;-122.338;2022-10-16T04:06:11;101177.09;;;16.72;73.19
70011;BME280;59543;37.950;-122.338;2022-10-16T04:08:37;101169.53;;;16.59;73.04
70011;BME280;59543;37.950;-122.338;2022-10-16T04:11:04;101165.13;;;16.58;73.57
70011;BME280;59543;37.950;-122.338;2022-10-16T04:13:31;101170.13;;;16.69;72.61
70011;BME280;59543;37.950;-122.338;2022-10-16T04:15:57;101164.94;;;16.60;73.40
70011;BME280;59543;37.950;-122.338;2022-10-16T04:18:23;101171.75;;;16.56;73.13
70011;BME280;59543;37.950;-122.338;2022-10-16T04:20:53;101183.09;;;16.59;73.49
70011;BME280;59543;37.950;-122.338;2022-10-16T04:23:20;101176.97;;;16.65;73.34
70011;BME280;59543;37.950;-122.338;2022-10-16T04:25:46;101178.00;;;16.64;73.21
70011;BME280;59543;37.950;-122.338;2022-10-16T04:28:13;101178.34;;;16.61;73.14
70011;BME280;59543;37.950;-122.338;2022-10-16T04:30:39;101187.84;;;16.57;73.50
70011;BME280;59543;37.950;-122.338;2022-10-16T04:33:05;101179.41;;;16.52;73.67
70011;BME280;59543;37.950;-122.338;2022-10-16T04:35:31;101180.50;;;16.66;73.54
70011;BME280;59543;37.950;-122.338;2022-10-16T04:38:00;101187.50;;;16.60;73.67
70011;BME280;59543;37.950;-122.338;2022-10-16T04:40:26;101188.13;;;16.71;72.80
70011;BME280;59543;37.950;-122.338;2022-10-16T04:42:52;101187.47;;;16.68;73.19
70011;BME280;59543;37.950;-122.338;2022-10-16T04:45:19;101190.19;;;16.68;72.91
70011;BME280;59543;37.950;-122.338;2022-10-16T04:47:45;101196.53;;;16.61;73.53
70011;BME280;59543;37.950;-122.338;2022-10-16T04:50:11;101190.56;;;16.57;73.72
70011;BME280;59543;37.950;-122.338;2022-10-16T04:52:37;101192.09;;;16.60;74.04
70011;BME280;59543;37.950;-122.338;2022-10-16T04:55:04;101192.41;;;16.65;73.58
70011;BME280;59543;37.950;-122.338;2022-10-16T04:57:30;101192.72;;;16.70;73.13
70011;BME280;59543;37.950;-122.338;2022-10-16T04:59:57;101197.13;;;16.71;73.06
70011;BME280;59543;37.950;-122.338;2022-10-16T05:02:23;101202.91;;;16.76;72.96
70011;BME280;59543;37.950;-122.338;2022-10-16T05:04:49;101206.97;;;16.72;73.10
70011;BME280;59543;37.950;-122.338;2022-10-16T05:07:15;101213.44;;;16.71;73.15
70011;BME280;59543;37.950;-122.338;2022-10-16T05:09:41;101204.78;;;16.76;72.31
70011;BME280;59543;37.950;-122.338;2022-10-16T05:12:08;101208.22;;;16.61;72.54
70011;BME280;59543;37.950;-122.338;2022-10-16T05:14:34;101217.91;;;16.64;73.06
70011;BME280;59543;37.950;-122.338;2022-10-16T05:17:00;101214.97;;;16.65;73.22
70011;BME280;59543;37.950;-122.338;2022-10-16T05:19:27;101221.94;;;16.76;72.59
70011;BME280;59543;37.950;-122.338;2022-10-16T05:21:53;101224.47;;;16.69;72.93
70011;BME280;59543;37.950;-122.338;2022-10-16T05:24:19;101230.56;;;16.80;72.45
70011;BME280;59543;37.950;-122.338;2022-10-16T05:26:45;101232.25;;;16.81;72.06
70011;BME280;59543;37.950;-122.338;2022-10-16T05:29:11;101238.22;;;16.68;73.06
70011;BME280;59543;37.950;-122.338;2022-10-16T05:31:38;101235.88;;;16.65;73.00
70011;BME280;59543;37.950;-122.338;2022-10-16T05:34:04;101229.25;;;16.67;73.38
70011;BME280;59543;37.950;-122.338;2022-10-16T05:36:30;101236.69;;;16.74;72.89
70011;BME280;59543;37.950;-122.338;2022-10-16T05:38:56;101233.28;;;16.80;72.36
70011;BME280;59543;37.950;-122.338;2022-10-16T05:41:22;101238.88;;;16.78;71.94
70011;BME280;59543;37.950;-122.338;2022-10-16T05:43:51;101234.31;;;16.71;72.65
70011;BME280;59543;37.950;-122.338;2022-10-16T05:46:18;101244.34;;;16.70;72.73
70011;BME280;59543;37.950;-122.338;2022-10-16T05:48:44;101237.41;;;16.67;72.81
70011;BME280;59543;37.950;-122.338;2022-10-16T05:51:13;101245.00;;;16.72;72.48
70011;BME280;59543;37.950;-122.338;2022-10-16T05:53:40;101236.69;;;16.82;72.11
70011;BME280;59543;37.950;-122.338;2022-10-16T05:56:09;101238.56;;;16.73;72.19
70011;BME280;59543;37.950;-122.338;2022-10-16T05:58:36;101235.03;;;16.64;72.74
70011;BME280;59543;37.950;-122.338;2022-10-16T06:01:09;101232.25;;;16.81;72.38
70011;BME280;59543;37.950;-122.338;2022-10-16T06:03:36;101233.09;;;16.81;72.50
70011;BME280;59543;37.950;-122.338;2022-10-16T06:06:28;101237.88;;;16.79;72.50
70011;BME280;59543;37.950;-122.338;2022-10-16T06:08:56;101232.59;;;16.78;72.10
70011;BME280;59543;37.950;-122.338;2022-10-16T06:11:25;101243.47;;;16.69;72.64
70011;BME280;59543;37.950;-122.338;2022-10-16T06:13:53;101247.56;;;16.65;72.66
70011;BME280;59543;37.950;-122.338;2022-10-16T06:16:20;101242.97;;;16.74;71.67
70011;BME280;59543;37.950;-122.338;2022-10-16T06:18:47;101239.56;;;16.80;71.55
70011;BME280;59543;37.950;-122.338;2022-10-16T06:21:18;101240.25;;;16.82;71.79
70011;BME280;59543;37.950;-122.338;2022-10-16T06:23:45;101241.75;;;16.85;71.93
70011;BME280;59543;37.950;-122.338;2022-10-16T06:26:14;101243.13;;;16.81;71.90
70011;BME280;59543;37.950;-122.338;2022-10-16T06:28:41;101252.78;;;16.75;72.40
70011;BME280;59543;37.950;-122.338;2022-10-16T06:31:09;101240.75;;;16.69;71.98
70011;BME280;59543;37.950;-122.338;2022-10-16T06:33:37;101235.69;;;16.66;71.83
70011;BME280;59543;37.950;-122.338;2022-10-16T06:36:09;101241.47;;;16.63;72.04
70011;BME280;59543;37.950;-122.338;2022-10-16T06:38:37;101244.38;;;16.62;71.78
70011;BME280;59543;37.950;-122.338;2022-10-16T06:41:05;101240.81;;;16.61;71.97
70011;BME280;59543;37.950;-122.338;2022-10-16T06:43:32;101240.31;;;16.58;72.31
70011;BME280;59543;37.950;-122.338;2022-10-16T06:45:59;101239.97;;;16.61;72.29
70011;BME280;59543;37.950;-122.338;2022-10-16T06:48:27;101234.47;;;16.69;72.22
70011;BME280;59543;37.950;-122.338;2022-10-16T06:50:57;101236.03;;;16.63;72.48
70011;BME280;59543;37.950;-122.338;2022-10-16T06:53:24;101228.06;;;16.70;71.80
70011;BME280;59543;37.950;-122.338;2022-10-16T06:55:50;101240.75;;;16.69;71.56
70011;BME280;59543;37.950;-122.338;2022-10-16T06:58:16;101237.56;;;16.66;71.51
70011;BME280;59543;37.950;-122.338;2022-10-16T07:00:43;101230.59;;;16.63;71.77
70011;BME280;59543;37.950;-122.338;2022-10-16T07:03:09;101239.28;;;16.67;71.72
70011;BME280;59543;37.950;-122.338;2022-10-16T07:05:39;101236.22;;;16.62;72.10
70011;BME280;59543;37.950;-122.338;2022-10-16T07:08:05;101237.25;;;16.61;72.74
70011;BME280;59543;37.950;-122.338;2022-10-16T07:10:32;101237.69;;;16.73;72.59
70011;BME280;59543;37.950;-122.338;2022-10-16T07:12:59;101240.59;;;16.71;72.49
70011;BME280;59543;37.950;-122.338;2022-10-16T07:15:25;101242.16;;;16.65;72.76
70011;BME280;59543;37.950;-122.338;2022-10-16T07:17:52;101240.41;;;16.73;72.68
70011;BME280;59543;37.950;-122.338;2022-10-16T07:20:18;101241.28;;;16.73;72.18
70011;BME280;59543;37.950;-122.338;2022-10-16T07:22:45;101241.63;;;16.70;72.41
70011;BME280;59543;37.950;-122.338;2022-10-16T07:25:11;101237.63;;;16.58;72.58
70011;BME280;59543;37.950;-122.338;2022-10-16T07:27:38;101242.63;;;16.69;72.40
70011;BME280;59543;37.950;-122.338;2022-10-16T07:30:05;101248.91;;;16.78;71.94
70011;BME280;59543;37.950;-122.338;2022-10-16T07:32:31;101247.72;;;16.72;72.60
70011;BME280;59543;37.950;-122.338;2022-10-16T07:34:58;101248.13;;;16.61;73.31
70011;BME280;59543;37.950;-122.338;2022-10-16T07:37:24;101251.69;;;16.61;73.11
70011;BME280;59543;37.950;-122.338;2022-10-16T07:39:50;101255.59;;;16.59;72.91
70011;BME280;59543;37.950;-122.338;2022-10-16T07:42:17;101258.31;;;16.59;72.69
70011;BME280;59543;37.950;-122.338;2022-10-16T07:44:43;101253.38;;;16.54;72.91
70011;BME280;59543;37.950;-122.338;2022-10-16T07:47:09;101258.63;;;16.64;72.80
70011;BME280;59543;37.950;-122.338;2022-10-16T07:49:35;101254.22;;;16.63;72.45
70011;BME280;59543;37.950;-122.338;2022-10-16T07:52:02;101258.13;;;16.60;72.41
70011;BME280;59543;37.950;-122.338;2022-10-16T07:54:28;101255.25;;;16.62;72.67
70011;BME280;59543;37.950;-122.338;2022-10-16T07:56:54;101246.06;;;16.63;72.37
70011;BME280;59543;37.950;-122.338;2022-10-16T07:59:20;101255.38;;;16.68;71.71
70011;BME280;59543;37.950;-122.338;2022-10-16T08:01:48;101259.63;;;16.71;71.77
70011;BME280;59543;37.950;-122.338;2022-10-16T08:04:14;101255.91;;;16.64;72.00
70011;BME280;59543;37.950;-122.338;2022-10-16T08:06:41;101256.56;;;16.66;72.37
70011;BME280;59543;37.950;-122.338;2022-10-16T08:09:07;101258.09;;;16.77;72.08
70011;BME280;59543;37.950;-122.338;2022-10-16T08:11:34;101270.84;;;16.68;71.72
70011;BME280;59543;37.950;-122.338;2022-10-16T08:14:01;101266.06;;;16.70;71.94
70011;BME280;59543;37.950;-122.338;2022-10-16T08:16:27;101255.38;;;16.68;72.15
70011;BME280;59543;37.950;-122.338;2022-10-16T08:18:53;101267.56;;;16.73;72.24
70011;BME280;59543;37.950;-122.338;2022-10-16T08:21:21;101265.41;;;16.68;72.52
70011;BME280;59543;37.950;-122.338;2022-10-16T08:23:53;101266.25;;;16.68;72.18
70011;BME280;59543;37.950;-122.338;2022-10-16T08:26:20;101265.56;;;16.66;71.90
70011;BME280;59543;37.950;-122.338;2022-10-16T08:28:49;101272.38;;;16.62;72.34
70011;BME280;59543;37.950;-122.338;2022-10-16T08:31:16;101275.13;;;16.54;72.51
70011;BME280;59543;37.950;-122.338;2022-10-16T08:33:44;101273.41;;;16.61;72.33
70011;BME280;59543;37.950;-122.338;2022-10-16T08:36:12;101268.63;;;16.63;72.30
70011;BME280;59543;37.950;-122.338;2022-10-16T08:38:39;101277.81;;;16.62;72.23
70011;BME280;59543;37.950;-122.338;2022-10-16T08:41:31;101269.50;;;16.64;72.08
70011;BME280;59543;37.950;-122.338;2022-10-16T08:49:27;101278.78;;;16.69;71.64
70011;BME280;59543;37.950;-122.338;2022-10-16T08:51:55;101279.50;;;16.63;71.94
70011;BME280;59543;37.950;-122.338;2022-10-16T08:54:28;101275.78;;;16.64;72.58
70011;BME280;59543;37.950;-122.338;2022-10-16T08:56:57;101282.56;;;16.60;72.82
70011;BME280;59543;37.950;-122.338;2022-10-16T08:59:26;101289.72;;;16.61;72.78
70011;BME280;59543;37.950;-122.338;2022-10-16T09:01:53;101283.72;;;16.66;72.30
70011;BME280;59543;37.950;-122.338;2022-10-16T09:04:46;101290.00;;;16.66;72.48
70011;BME280;59543;37.950;-122.338;2022-10-16T09:16:10;101296.66;;;16.64;72.71
70011;BME280;59543;37.950;-122.338;2022-10-16T09:21:18;101303.25;;;16.69;72.72
70011;BME280;59543;37.950;-122.338;2022-10-16T09:23:45;101305.31;;;16.67;72.76
70011;BME280;59543;37.950;-122.338;2022-10-16T09:26:13;101301.41;;;16.70;72.72
70011;BME280;59543;37.950;-122.338;2022-10-16T09:28:41;101297.84;;;16.61;72.99
70011;BME280;59543;37.950;-122.338;2022-10-16T09:31:20;101303.75;;;16.73;72.67
70011;BME280;59543;37.950;-122.338;2022-10-16T09:33:51;101303.75;;;16.73;72.63
70011;BME280;59543;37.950;-122.338;2022-10-16T09:36:19;101299.88;;;16.67;72.89
70011;BME280;59543;37.950;-122.338;2022-10-16T09:38:46;101297.16;;;16.59;73.05
70011;BME280;59543;37.950;-122.338;2022-10-16T09:41:21;101299.53;;;16.62;72.98
70011;BME280;59543;37.950;-122.338;2022-10-16T09:43:59;101298.34;;;16.65;73.10
70011;BME280;59543;37.950;-122.338;2022-10-16T09:46:34;101298.22;;;16.58;73.50
70011;BME280;59543;37.950;-122.338;2022-10-16T09:49:25;101305.31;;;16.59;73.31
70011;BME280;59543;37.950;-122.338;2022-10-16T09:52:06;101300.91;;;16.58;73.75
70011;BME280;59543;37.950;-122.338;2022-10-16T09:54:37;101296.66;;;16.64;72.97
70011;BME280;59543;37.950;-122.338;2022-10-16T09:57:07;101309.69;;;16.68;73.26
70011;BME280;59543;37.950;-122.338;2022-10-16T09:59:49;101309.84;;;16.75;72.79
70011;BME280;59543;37.950;-122.338;2022-10-16T10:02:18;101309.38;;;16.63;73.33
70011;BME280;59543;37.950;-122.338;2022-10-16T10:04:50;101314.16;;;16.61;73.26
70011;BME280;59543;37.950;-122.338;2022-10-16T10:07:27;101315.84;;;16.54;73.76
70011;BME280;59543;37.950;-122.338;2022-10-16T10:09:56;101313.13;;;16.54;73.65
70011;BME280;59543;37.950;-122.338;2022-10-16T10:12:28;101321.13;;;16.56;73.57
70011;BME280;59543;37.950;-122.338;2022-10-16T10:14:56;101320.06;;;16.65;72.85
70011;BME280;59543;37.950;-122.338;2022-10-16T10:17:25;101322.78;;;16.65;72.94
70011;BME280;59543;37.950;-122.338;2022-10-16T10:19:59;101325.50;;;16.65;73.03
70011;BME280;59543;37.950;-122.338;2022-10-16T10:30:40;101334.16;;;16.60;72.67
70011;BME280;59543;37.950;-122.338;2022-10-16T10:38:43;101337.19;;;16.74;72.28
70011;BME280;59543;37.950;-122.338;2022-10-16T10:44:24;101336.94;;;16.52;73.36
70011;BME280;59543;37.950;-122.338;2022-10-16T10:46:58;101339.13;;;16.49;73.66
70011;BME280;59543;37.950;-122.338;2022-10-16T10:49:57;101340.28;;;16.54;73.49
70011;BME280;59543;37.950;-122.338;2022-10-16T10:52:42;101338.75;;;16.60;73.69
70011;BME280;59543;37.950;-122.338;2022-10-16T10:55:31;101338.94;;;16.58;73.61
70011;BME280;59543;37.950;-122.338;2022-10-16T10:58:39;101346.06;;;16.59;73.80
70011;BME280;59543;37.950;-122.338;2022-10-16T11:01:13;101343.19;;;16.53;73.81
70011;BME280;59543;37.950;-122.338;2022-10-16T11:06:40;101345.56;;;16.48;73.88
70011;BME280;59543;37.950;-122.338;2022-10-16T11:09:23;101343.19;;;16.53;73.44
70011;BME280;59543;37.950;-122.338;2022-10-16T11:12:06;101347.59;;;16.45;73.92
70011;BME280;59543;37.950;-122.338;2022-10-16T11:14:46;101343.69;;;16.48;73.60
70011;BME280;59543;37.950;-122.338;2022-10-16T11:20:14;101356.09;;;16.59;72.84
70011;BME280;59543;37.950;-122.338;2022-10-16T11:22:48;101358.47;;;16.54;72.64
70011;BME280;59543;37.950;-122.338;2022-10-16T11:25:32;101359.28;;;16.62;72.23
70011;BME280;59543;37.950;-122.338;2022-10-16T11:28:20;101362.72;;;16.56;72.42
70011;BME280;59543;37.950;-122.338;2022-10-16T11:31:08;101361.03;;;16.55;72.49
70011;BME280;59543;37.950;-122.338;2022-10-16T11:39:21;101353.22;;;16.52;71.95
70011;BME280;59543;37.950;-122.338;2022-10-16T11:47:35;101373.56;;;16.48;72.30
70011;BME280;59543;37.950;-122.338;2022-10-16T11:50:22;101370.91;;;16.40;72.98
70011;BME280;59543;37.950;-122.338;2022-10-16T11:55:53;101366.81;;;16.52;72.23
70011;BME280;59543;37.950;-122.338;2022-10-16T12:08:51;101370.91;;;16.40;73.04
70011;BME280;59543;37.950;-122.338;2022-10-16T12:14:04;101375.78;;;16.53;73.41
70011;BME280;59543;37.950;-122.338;2022-10-16T12:16:31;101390.38;;;16.60;73.14
70011;BME280;59543;37.950;-122.338;2022-10-16T12:19:15;101392.94;;;16.53;73.67
70011;BME280;59543;37.950;-122.338;2022-10-16T12:21:43;101401.41;;;16.50;73.50
70011;BME280;59543;37.950;-122.338;2022-10-16T12:26:57;101406.00;;;16.50;73.68
70011;BME280;59543;37.950;-122.338;2022-10-16T12:31:57;101406.34;;;16.46;73.76
70011;BME280;59543;37.950;-122.338;2022-10-16T12:34:27;101399.72;;;16.49;73.91
70011;BME280;59543;37.950;-122.338;2022-10-16T12:36:55;101403.63;;;16.55;73.85
70011;BME280;59543;37.950;-122.338;2022-10-16T12:39:33;101403.13;;;16.43;74.25
70011;BME280;59543;37.950;-122.338;2022-10-16T12:42:04;101409.56;;;16.42;74.74
70011;BME280;59543;37.950;-122.338;2022-10-16T12:44:35;101407.19;;;16.39;74.44
70011;BME280;59543;37.950;-122.338;2022-10-16T12:47:02;101407.38;;;16.37;74.51
70011;BME280;59543;37.950;-122.338;2022-10-16T12:51:55;101418.06;;;16.39;74.54
70011;BME280;59543;37.950;-122.338;2022-10-16T12:54:38;101425.53;;;16.37;74.59
70011;BME280;59543;37.950;-122.338;2022-10-16T13:19:35;101431.28;;;16.42;74.09
70011;BME280;59543;37.950;-122.338;2022-10-16T13:30:17;101424.84;;;16.43;73.96
70011;BME280;59543;37.950;-122.338;2022-10-16T13:32:51;101428.22;;;16.45;74.12
70011;BME280;59543;37.950;-122.338;2022-10-16T13:35:24;101428.22;;;16.45;73.93
70011;BME280;59543;37.950;-122.338;2022-10-16T13:37:50;101439.94;;;16.45;73.98
70011;BME280;59543;37.950;-122.338;2022-10-16T13:40:22;101431.13;;;16.52;73.76
70011;BME280;59543;37.950;-122.338;2022-10-16T13:42:50;101442.81;;;16.60;72.57
70011;BME280;59543;37.950;-122.338;2022-10-16T13:45:20;101434.50;;;16.62;72.74
70011;BME280;59543;37.950;-122.338;2022-10-16T13:47:47;101437.22;;;16.54;72.98
70011;BME280;59543;37.950;-122.338;2022-10-16T13:50:16;101435.38;;;16.46;73.33
70011;BME280;59543;37.950;-122.338;2022-10-16T13:52:44;101433.66;;;16.53;72.01
70011;BME280;59543;37.950;-122.338;2022-10-16T13:55:15;101440.78;;;16.54;71.93
70011;BME280;59543;37.950;-122.338;2022-10-16T13:57:42;101435.34;;;16.54;71.65
70011;BME280;59543;37.950;-122.338;2022-10-16T14:02:55;101430.09;;;16.44;71.42
70011;BME280;59543;37.950;-122.338;2022-10-16T14:05:23;101434.34;;;16.47;71.33
70011;BME280;59543;37.950;-122.338;2022-10-16T14:07:50;101437.06;;;16.47;70.70
70011;BME280;59543;37.950;-122.338;2022-10-16T14:10:24;101449.13;;;16.44;70.55
70011;BME280;59543;37.950;-122.338;2022-10-16T14:13:02;101447.94;;;16.47;70.29
70011;BME280;59543;37.950;-122.338;2022-10-16T14:15:31;101447.59;;;16.50;70.64
70011;BME280;59543;37.950;-122.338;2022-10-16T14:17:58;101445.22;;;16.47;70.81
70011;BME280;59543;37.950;-122.338;2022-10-16T14:20:27;101455.22;;;16.46;70.96
70011;BME280;59543;37.950;-122.338;2022-10-16T14:25:45;101451.50;;;16.48;71.52
70011;BME280;59543;37.950;-122.338;2022-10-16T14:28:19;101455.03;;;16.48;71.52
70011;BME280;59543;37.950;-122.338;2022-10-16T14:30:57;101453.72;;;16.52;71.63
70011;BME280;59543;37.950;-122.338;2022-10-16T14:36:12;101459.28;;;16.42;71.75
70011;BME280;59543;37.950;-122.338;2022-10-16T14:38:47;101464.22;;;16.47;71.86
70011;BME280;59543;37.950;-122.338;2022-10-16T14:41:15;101464.22;;;16.47;72.15
70011;BME280;59543;37.950;-122.338;2022-10-16T14:43:42;101463.38;;;16.46;71.65